Aeroporto :
LOGIN :

Iscrizione | Disclaimer

   EN    FR    IT 

 










Sommario :    VFR   VFR Marginale   IFR   IFR Intensivo   IFR Molto Intensivo
Visibilità : 
Base nubi : 
>= 8 km
>= 3000ft
5 / 8 km
1000 / 3000 ft
1500m / 5 km
500 / 1000 ft
800 / 1500m
200 / 500 ft
< 800m
< 200 ft
Simboli :   Temporali  Nebbia  Neve Forte  Precipitazioni Forti  Vento > 20 kt
SIGMETs :   Varie  Temporali  Ghiacco  Turbolenza  Onda orograficha  Ceneri Vulcaniche






- Altitudine del aeroporto : 580 ft


LFOA - Avord

ULTIMO METAR :
  • 231830Z AUTO 23012KT 9999 FEW031 BKN064 BKN086 05/03 Q0997 NOSIG

METARs OBSOLETI :
  • 231800Z AUTO 22011KT 9999 SCT027 BKN190 BKN220 06/03 Q0997 TEMPO 23015G25KT 4000 SHRA BKN008 BKN015CB
  • 231730Z AUTO 23008KT 9999 SCT026 BKN040 BKN110 06/03 Q0996 TEMPO 23015G25KT 4000 SHRA BKN008 BKN015CB
  • 231700Z AUTO 23010KT 9999 BKN024/// BKN130/// ///TCU 06/04 Q0996 TEMPO 23015G25KT 4000 SHRA BKN008 BKN015CB
  • 231630Z AUTO 23012KT 9999 FEW029/// SCT150/// BKN180/// ///TCU 06/03 Q0996 TEMPO 23015G25KT 4000 SHRA BKN008 BKN015CB
  • 231600Z AUTO 25011KT 9999 FEW021/// BKN043/// BKN072/// ///CB 06/04 Q0996 TEMPO 23015G25KT 4000 SHRA BKN008 BKN015CB
  • 231530Z AUTO 23012KT 9999 BKN040/// BKN062/// BKN078/// ///TCU 07/04 Q0996 TEMPO 23015G25KT 4000 SHRA BKN008 BKN015CB
  • 231500Z AUTO 22012KT 9999 FEW020/// SCT031/// BKN044/// //////CB 08/05 Q0996 TEMPO 23015G25KT 2000 -TSRAGS BKN008 BKN015CB
  • 231430Z AUTO 23011KT 9999 -RA SCT025/// BKN035/// BKN044/// ///TCU 08/05 Q0996 TEMPO 23015G25KT 2000 -TSRAGS BKN008 BKN015CB
  • 231400Z AUTO 22015KT 7000 RA FEW012/// BKN027/// BKN033/// ///TCU 06/04 Q0997 TEMPO 23015G25KT 2000 -TSRAGS BKN008 BKN015CB

TAF TAF LFOA
Valido dal 23 a 15 ore il 24 a 15 ore UTC


231400Z 2315/2415 23012KT 9999 SCT035 TX10/2413Z TN03/2405Z
TEMPO 2315/2319 23015G25KT 4000 SHRA BKN008 BKN015CB
PROB30
TEMPO 2315/2317 2000 -TSRAGS
PROB40
TEMPO 2401/2409 4000 -RA BKN012 BKN025
BECMG 2412/2414 SCT025TCU



MetMap, La meteo Aeronautica in un colpo d'occhio ! - Copyright ORBIFLY Dicembre 2007 - Disclaimer

ORBIFLY MET'MAP TEAM :

Programmazione e sviluppo : Alexandra Zaïnal
Concezione : Baudouin d'Aumeries
Supporto tecnico e logistico : Manuel Goepfert
Aiuto : Marc-Olivier Méhu
Aiuto per la traduzione : Arnaldo La Scala




FONTI E CREDITI :

   NOAA